createdAt,value
2022-12-23T00:00:57.330Z,1.95
2022-12-23T00:03:24.485Z,1.85
2022-12-23T00:05:51.754Z,2.45
2022-12-23T00:08:19.065Z,2.00
2022-12-23T00:10:48.124Z,2.00
2022-12-23T00:13:33.114Z,2.45
2022-12-23T00:16:11.873Z,1.75
2022-12-23T00:18:39.304Z,1.95
2022-12-23T00:21:12.865Z,1.60
2022-12-23T00:23:41.765Z,1.60
2022-12-23T00:26:14.056Z,1.63
2022-12-23T00:28:40.766Z,1.75
2022-12-23T00:31:08.335Z,1.42
2022-12-23T00:33:38.040Z,1.98
2022-12-23T00:36:19.312Z,1.65
2022-12-23T00:39:04.566Z,1.45
2022-12-23T00:41:50.541Z,1.85
2022-12-23T00:44:17.329Z,1.35
2022-12-23T00:46:44.233Z,1.33
2022-12-23T00:49:34.723Z,1.75
2022-12-23T00:52:02.232Z,1.58
2022-12-23T00:54:29.503Z,1.38
2022-12-23T00:56:55.961Z,1.30
2022-12-23T00:59:22.720Z,1.30
2022-12-23T01:02:08.391Z,1.52
2022-12-23T01:04:54.641Z,1.38
2022-12-23T01:07:22.182Z,1.50
2022-12-23T01:09:48.665Z,1.42
2022-12-23T01:12:15.384Z,1.15
2022-12-23T01:14:41.874Z,1.70
2022-12-23T01:17:09.054Z,1.80
2022-12-23T01:19:35.788Z,1.92
2022-12-23T01:22:02.718Z,1.50
2022-12-23T01:24:30.810Z,1.65
2022-12-23T01:26:57.769Z,1.35
2022-12-23T01:29:24.775Z,1.90
2022-12-23T01:35:02.214Z,1.60
2022-12-23T01:37:48.638Z,1.50
2022-12-23T01:40:36.899Z,1.70
2022-12-23T01:43:41.895Z,1.48
2022-12-23T01:46:28.789Z,1.40
2022-12-23T01:49:15.469Z,1.98
2022-12-23T01:51:43.131Z,1.60
2022-12-23T01:54:09.618Z,1.60
2022-12-23T01:56:39.759Z,1.38
2022-12-23T01:59:11.885Z,1.67
2022-12-23T02:01:57.055Z,2.03
2022-12-23T02:04:26.195Z,1.52
2022-12-23T02:07:11.593Z,1.52
2022-12-23T02:09:40.349Z,1.35
2022-12-23T02:13:05.828Z,1.77
2022-12-23T02:16:09.686Z,1.40
2022-12-23T02:18:45.026Z,1.50
2022-12-23T02:21:30.849Z,1.60
2022-12-23T02:24:18.045Z,1.73
2022-12-23T02:27:05.262Z,1.90
2022-12-23T02:29:40.863Z,1.85
2022-12-23T02:32:26.961Z,2.53
2022-12-23T02:35:10.847Z,1.40
2022-12-23T02:38:00.294Z,1.52
2022-12-23T02:40:39.397Z,1.70
2022-12-23T02:43:34.849Z,1.77
2022-12-23T02:46:33.449Z,1.33
2022-12-23T02:49:23.675Z,1.75
2022-12-23T02:51:54.626Z,2.00
2022-12-23T02:54:30.938Z,1.80
2022-12-23T02:57:01.549Z,1.70
2022-12-23T02:59:34.302Z,1.52
2022-12-23T03:02:01.767Z,1.48
2022-12-23T03:04:28.675Z,1.98
2022-12-23T03:06:57.119Z,1.85
2022-12-23T03:09:48.492Z,1.83
2022-12-23T03:12:46.437Z,1.50
2022-12-23T03:15:22.331Z,2.58
2022-12-23T03:18:25.620Z,1.77
2022-12-23T03:21:08.226Z,1.70
2022-12-23T03:23:53.635Z,1.88
2022-12-23T03:26:38.924Z,1.30
2022-12-23T03:29:13.338Z,1.42
2022-12-23T03:31:41.347Z,1.85
2022-12-23T03:34:16.743Z,1.60
2022-12-23T03:36:52.960Z,1.63
2022-12-23T03:39:24.417Z,1.30
2022-12-23T03:41:57.826Z,1.80
2022-12-23T03:44:30.007Z,1.52
2022-12-23T03:47:18.947Z,1.40
2022-12-23T03:49:53.973Z,1.52
2022-12-23T03:52:27.386Z,1.83
2022-12-23T03:54:56.058Z,1.80
2022-12-23T03:57:28.710Z,2.20
2022-12-23T03:59:55.998Z,1.48
2022-12-23T04:02:47.399Z,1.60
2022-12-23T04:05:26.098Z,2.00
2022-12-23T04:08:07.733Z,2.17
2022-12-23T04:10:35.347Z,1.80
2022-12-23T04:13:02.016Z,1.90
2022-12-23T04:15:28.762Z,2.25
2022-12-23T04:17:58.109Z,2.15
2022-12-23T04:20:24.826Z,2.03
2022-12-23T04:22:51.828Z,1.80
2022-12-23T04:25:18.887Z,2.15
2022-12-23T04:27:45.597Z,2.22
2022-12-23T04:30:13.788Z,2.58
2022-12-23T04:32:42.052Z,2.42
2022-12-23T04:35:09.798Z,2.50
2022-12-23T04:37:36.679Z,2.50
2022-12-23T04:40:04.572Z,3.10
2022-12-23T04:42:31.272Z,2.38
2022-12-23T04:44:58.601Z,1.92
2022-12-23T04:47:25.103Z,2.17
2022-12-23T04:49:54.659Z,1.88
2022-12-23T04:52:21.303Z,2.33
2022-12-23T04:54:48.004Z,2.22
2022-12-23T04:57:15.840Z,2.25
2022-12-23T04:59:42.693Z,1.80
2022-12-23T05:02:09.668Z,1.83
2022-12-23T05:04:36.539Z,2.05
2022-12-23T05:07:03.129Z,1.92
2022-12-23T05:09:29.863Z,1.98
2022-12-23T05:11:56.274Z,2.75
2022-12-23T05:14:23.413Z,2.03
2022-12-23T05:16:50.169Z,1.75
2022-12-23T05:19:17.056Z,2.17
2022-12-23T05:21:43.549Z,2.00
2022-12-23T05:24:10.279Z,2.00
2022-12-23T05:26:36.986Z,1.90
2022-12-23T05:29:03.553Z,1.52
2022-12-23T05:31:30.158Z,1.67
2022-12-23T05:34:04.098Z,1.80
2022-12-23T05:36:33.181Z,1.90
2022-12-23T05:38:59.967Z,1.70
2022-12-23T05:41:26.585Z,1.58
2022-12-23T05:43:53.177Z,1.45
2022-12-23T05:46:26.286Z,1.40
2022-12-23T05:48:53.405Z,1.63
2022-12-23T05:51:20.097Z,1.40
2022-12-23T05:53:46.773Z,1.50
2022-12-23T05:56:13.273Z,1.30
2022-12-23T05:58:39.884Z,1.48
2022-12-23T06:01:07.698Z,1.70
2022-12-23T06:03:34.570Z,1.58
2022-12-23T06:06:01.468Z,1.90
2022-12-23T06:08:27.911Z,1.60
2022-12-23T06:10:54.682Z,1.95
2022-12-23T06:13:21.238Z,1.92
2022-12-23T06:15:48.248Z,1.70
2022-12-23T06:18:15.072Z,2.58
2022-12-23T06:20:41.550Z,2.00
2022-12-23T06:23:08.042Z,1.60
2022-12-23T06:25:34.732Z,1.90
2022-12-23T06:28:01.742Z,1.83
2022-12-23T06:30:28.458Z,1.33
2022-12-23T06:32:54.859Z,1.60
2022-12-23T06:35:21.588Z,2.17
2022-12-23T06:37:48.185Z,1.70
2022-12-23T06:40:14.980Z,1.40
2022-12-23T06:42:41.922Z,1.50
2022-12-23T06:45:09.075Z,1.60
2022-12-23T06:47:35.589Z,1.48
2022-12-23T06:50:03.981Z,1.70
2022-12-23T06:52:30.641Z,2.15
2022-12-23T06:54:57.309Z,2.00
2022-12-23T06:57:24.406Z,2.53
2022-12-23T06:59:50.883Z,1.73
2022-12-23T07:02:17.667Z,1.50
2022-12-23T07:04:44.295Z,1.70
2022-12-23T07:07:10.731Z,1.58
2022-12-23T07:09:37.383Z,1.67
2022-12-23T07:12:04.128Z,1.90
2022-12-23T07:14:30.814Z,1.63
2022-12-23T07:16:57.374Z,1.77
2022-12-23T07:19:24.263Z,1.45
2022-12-23T07:21:50.777Z,1.83
2022-12-23T07:24:17.207Z,1.50
2022-12-23T07:26:43.637Z,1.88
2022-12-23T07:29:10.077Z,1.90
2022-12-23T07:31:40.790Z,1.85
2022-12-23T07:34:08.276Z,1.95
2022-12-23T07:36:35.468Z,1.73
2022-12-23T07:39:01.971Z,1.60
2022-12-23T07:41:28.442Z,1.27
2022-12-23T07:43:59.556Z,1.42
2022-12-23T07:46:26.165Z,2.10
2022-12-23T07:48:52.982Z,2.03
2022-12-23T07:51:19.842Z,1.75
2022-12-23T07:53:50.547Z,1.52
2022-12-23T07:56:18.377Z,1.38
2022-12-23T07:58:49.227Z,2.05
2022-12-23T08:01:16.365Z,1.50
2022-12-23T08:03:43.032Z,1.70
2022-12-23T08:06:14.924Z,1.80
2022-12-23T08:08:44.170Z,2.30
2022-12-23T08:11:12.856Z,1.90
2022-12-23T08:13:41.452Z,1.95
2022-12-23T08:16:08.517Z,2.10
2022-12-23T08:18:36.991Z,2.00
2022-12-23T08:21:05.822Z,2.45
2022-12-23T08:23:33.101Z,2.40
2022-12-23T08:26:21.538Z,2.40
2022-12-23T08:28:49.683Z,1.98
2022-12-23T08:31:25.216Z,1.90
2022-12-23T08:33:54.447Z,1.83
2022-12-23T08:36:23.913Z,1.60
2022-12-23T08:38:53.969Z,1.90
2022-12-23T08:41:23.665Z,1.15
2022-12-23T08:43:50.554Z,1.40
2022-12-23T08:46:18.199Z,1.30
2022-12-23T08:48:49.080Z,1.67
2022-12-23T08:51:18.738Z,1.30
2022-12-23T08:53:46.603Z,1.20
2022-12-23T08:56:16.511Z,1.25
2022-12-23T08:58:45.669Z,1.38
2022-12-23T09:01:15.277Z,1.10
2022-12-23T09:03:42.445Z,1.08
2022-12-23T09:06:21.879Z,1.20
2022-12-23T09:08:53.287Z,1.15
2022-12-23T09:11:23.038Z,1.45
2022-12-23T09:13:49.909Z,1.20
2022-12-23T09:16:17.064Z,1.25
2022-12-23T09:18:43.692Z,1.15
2022-12-23T09:21:13.873Z,1.63
2022-12-23T09:26:09.449Z,1.95
2022-12-23T09:28:36.322Z,2.20
2022-12-23T09:31:11.170Z,1.63
2022-12-23T09:33:38.492Z,2.05
2022-12-23T09:36:05.871Z,1.40
2022-12-23T09:38:33.077Z,1.67
2022-12-23T09:41:21.758Z,1.60
2022-12-23T09:44:22.434Z,2.03
2022-12-23T09:46:57.287Z,1.00
2022-12-23T09:49:24.277Z,1.15
2022-12-23T09:51:55.867Z,1.33
2022-12-23T09:54:26.707Z,1.20
2022-12-23T09:57:13.259Z,1.27
2022-12-23T09:59:48.871Z,1.33
2022-12-23T10:02:36.957Z,1.40
2022-12-23T10:05:12.471Z,1.52
2022-12-23T10:07:46.847Z,1.40
2022-12-23T10:10:25.537Z,1.73
2022-12-23T10:12:53.967Z,1.55
2022-12-23T10:15:42.904Z,1.60
2022-12-23T10:18:20.932Z,1.38
2022-12-23T10:20:52.578Z,1.60
2022-12-23T10:23:29.132Z,1.60
2022-12-23T10:25:55.651Z,1.67
2022-12-23T10:28:23.090Z,2.00
2022-12-23T10:34:01.850Z,1.50
2022-12-23T10:36:33.513Z,1.40
2022-12-23T10:39:18.195Z,1.75
2022-12-23T10:42:16.715Z,1.90
2022-12-23T10:44:58.531Z,1.80
2022-12-23T10:47:51.732Z,1.90
2022-12-23T10:50:35.001Z,1.90
2022-12-23T10:53:04.647Z,1.60
2022-12-23T10:55:35.440Z,1.70
2022-12-23T10:58:07.870Z,1.60
2022-12-23T11:00:38.900Z,1.52
2022-12-23T11:03:20.251Z,1.30
2022-12-23T11:05:50.686Z,1.70
2022-12-23T11:08:18.337Z,1.50
2022-12-23T11:10:45.738Z,1.75
2022-12-23T11:13:24.543Z,1.80
2022-12-23T11:15:52.395Z,1.80
2022-12-23T11:18:21.503Z,2.38
2022-12-23T11:21:06.042Z,2.22
2022-12-23T11:23:35.767Z,1.80
2022-12-23T11:26:07.617Z,1.77
2022-12-23T11:31:12.037Z,1.80
2022-12-23T11:33:45.371Z,1.52
2022-12-23T11:36:23.680Z,1.60
2022-12-23T11:39:03.896Z,1.30
2022-12-23T11:41:36.465Z,1.55
2022-12-23T11:44:17.614Z,1.15
2022-12-23T11:46:44.384Z,1.27
2022-12-23T11:49:19.406Z,1.20
2022-12-23T11:51:58.933Z,1.38
2022-12-23T11:54:25.539Z,1.40
2022-12-23T11:56:53.547Z,1.13
2022-12-23T11:59:40.662Z,1.40
2022-12-23T12:02:26.978Z,1.33
2022-12-23T12:05:01.657Z,1.17
2022-12-23T12:07:30.280Z,1.50
2022-12-23T12:10:00.307Z,1.40
2022-12-23T12:12:28.250Z,1.42
2022-12-23T12:14:57.476Z,2.72
2022-12-23T12:17:37.652Z,1.88
2022-12-23T12:20:25.620Z,1.70
2022-12-23T12:23:02.651Z,1.77
2022-12-23T12:25:44.707Z,1.50
2022-12-23T12:28:23.275Z,1.60
2022-12-23T12:31:02.199Z,1.70
2022-12-23T12:33:38.304Z,1.60
2022-12-23T12:36:29.261Z,1.58
2022-12-23T12:38:58.742Z,1.95
2022-12-23T12:41:33.122Z,1.50
2022-12-23T12:44:24.601Z,1.70
2022-12-23T12:46:56.467Z,1.90
2022-12-23T12:49:35.670Z,1.80
2022-12-23T12:52:13.222Z,1.50
2022-12-23T12:54:57.602Z,1.52
2022-12-23T12:57:25.166Z,1.60
2022-12-23T13:00:03.605Z,1.60
2022-12-23T13:02:41.492Z,1.73
2022-12-23T13:05:33.802Z,1.50
2022-12-23T13:08:23.400Z,1.50
2022-12-23T13:10:57.604Z,1.40
2022-12-23T13:13:45.630Z,1.30
2022-12-23T13:16:27.551Z,0.90
2022-12-23T13:19:06.189Z,1.23
2022-12-23T13:21:58.482Z,1.40
2022-12-23T13:24:34.445Z,1.20
2022-12-23T13:27:33.724Z,1.10
2022-12-23T13:30:21.496Z,1.30
2022-12-23T13:32:57.630Z,1.00
2022-12-23T13:35:52.120Z,1.35
2022-12-23T13:38:36.356Z,1.38
2022-12-23T13:41:04.345Z,1.25
2022-12-23T13:43:42.933Z,1.00
2022-12-23T13:46:22.000Z,0.90
2022-12-23T13:48:53.849Z,1.30
2022-12-23T13:51:34.652Z,1.20
2022-12-23T13:54:39.692Z,1.02
2022-12-23T13:57:21.364Z,1.20
2022-12-23T14:00:22.064Z,1.10
2022-12-23T14:02:52.184Z,1.10
2022-12-23T14:05:42.239Z,1.42
2022-12-23T14:08:17.953Z,1.08
2022-12-23T14:11:11.117Z,1.40
2022-12-23T14:13:46.031Z,1.95
2022-12-23T14:16:34.964Z,1.20
2022-12-23T14:19:23.279Z,1.30
2022-12-23T14:21:59.281Z,1.23
2022-12-23T14:24:42.866Z,1.20
2022-12-23T14:27:35.800Z,1.20
2022-12-23T14:30:21.904Z,1.40
2022-12-23T14:33:00.122Z,1.27
2022-12-23T14:35:40.113Z,1.60
2022-12-23T14:38:15.203Z,1.30
2022-12-23T14:40:42.009Z,1.40
2022-12-23T14:43:25.904Z,1.65
2022-12-23T14:46:00.107Z,1.50
2022-12-23T14:48:41.624Z,1.52
2022-12-23T14:51:08.312Z,1.55
2022-12-23T14:53:57.456Z,1.70
2022-12-23T14:56:39.804Z,1.48
2022-12-23T14:59:12.393Z,1.80
2022-12-23T15:01:54.170Z,1.63
2022-12-23T15:04:29.901Z,1.40
2022-12-23T15:07:04.008Z,1.50
2022-12-23T15:09:35.676Z,1.65
2022-12-23T15:12:14.529Z,1.85
2022-12-23T15:14:52.503Z,1.50
2022-12-23T15:17:34.625Z,1.98
2022-12-23T15:20:10.515Z,1.60
2022-12-23T15:22:38.400Z,1.40
2022-12-23T15:25:22.814Z,1.35
2022-12-23T15:27:49.797Z,1.50
2022-12-23T15:30:17.705Z,1.33
2022-12-23T15:32:50.517Z,1.33
2022-12-23T15:35:23.758Z,1.23
2022-12-23T15:37:51.151Z,1.67
2022-12-23T15:40:25.276Z,1.60
2022-12-23T15:42:52.012Z,1.13
2022-12-23T15:45:39.585Z,1.30
2022-12-23T15:48:22.456Z,1.70
2022-12-23T15:50:53.335Z,1.40
2022-12-23T15:53:20.531Z,1.70
2022-12-23T15:55:49.176Z,1.90
2022-12-23T15:58:22.726Z,1.38
2022-12-23T16:00:58.017Z,1.75
2022-12-23T16:03:40.589Z,1.35
2022-12-23T16:06:25.909Z,1.55
2022-12-23T16:09:15.220Z,1.92
2022-12-23T16:11:56.308Z,1.77
2022-12-23T16:14:35.221Z,1.90
2022-12-23T16:17:13.899Z,1.23
2022-12-23T16:19:56.111Z,1.80
2022-12-23T16:22:26.818Z,1.63
2022-12-23T16:25:15.913Z,1.63
2022-12-23T16:27:47.373Z,1.83
2022-12-23T16:30:24.103Z,1.70
2022-12-23T16:32:52.343Z,1.42
2022-12-23T16:35:33.081Z,1.58
2022-12-23T16:38:12.788Z,2.17
2022-12-23T16:40:39.867Z,2.38
2022-12-23T16:43:07.860Z,1.98
2022-12-23T16:45:36.325Z,1.77
2022-12-23T16:48:11.496Z,1.55
2022-12-23T16:50:38.877Z,2.40
2022-12-23T16:53:06.074Z,1.77
2022-12-23T16:55:32.945Z,1.60
2022-12-23T16:58:00.418Z,2.00
2022-12-23T17:00:27.785Z,1.73
2022-12-23T17:02:54.945Z,1.67
2022-12-23T17:05:23.560Z,1.60
2022-12-23T17:07:50.519Z,1.70
2022-12-23T17:10:18.706Z,1.85
2022-12-23T17:12:46.896Z,1.45
2022-12-23T17:15:23.393Z,1.50
2022-12-23T17:17:52.463Z,1.42
2022-12-23T17:20:20.818Z,1.40
2022-12-23T17:22:53.716Z,1.45
2022-12-23T17:25:26.358Z,1.52
2022-12-23T17:27:53.718Z,1.58
2022-12-23T17:30:23.745Z,1.30
2022-12-23T17:33:00.187Z,1.60
2022-12-23T17:35:26.924Z,1.17
2022-12-23T17:37:53.407Z,1.80
2022-12-23T17:40:20.579Z,1.77
2022-12-23T17:42:48.166Z,1.40
2022-12-23T17:45:29.872Z,1.10
2022-12-23T17:47:56.833Z,1.13
2022-12-23T17:50:24.591Z,1.23
2022-12-23T17:52:52.591Z,1.20
2022-12-23T17:55:23.323Z,1.27
2022-12-23T17:57:50.785Z,1.00
2022-12-23T18:00:28.048Z,1.40
2022-12-23T18:03:00.759Z,1.40
2022-12-23T18:05:30.150Z,1.27
2022-12-23T18:07:58.539Z,1.20
2022-12-23T18:10:33.576Z,1.55
2022-12-23T18:13:02.694Z,1.70
2022-12-23T18:15:39.347Z,1.58
2022-12-23T18:18:24.607Z,1.30
2022-12-23T18:20:57.341Z,1.65
2022-12-23T18:23:32.733Z,1.33
2022-12-23T18:26:00.342Z,1.70
2022-12-23T18:28:27.568Z,1.60
2022-12-23T18:30:58.081Z,1.67
2022-12-23T18:33:28.620Z,1.80
2022-12-23T18:35:55.279Z,1.42
2022-12-23T18:38:21.732Z,1.48
2022-12-23T18:40:52.193Z,1.30
2022-12-23T18:45:52.433Z,1.00
2022-12-23T18:48:19.953Z,1.45
2022-12-23T18:50:49.780Z,1.55
2022-12-23T18:53:23.928Z,1.30
2022-12-23T18:55:52.773Z,1.50
2022-12-23T18:58:20.551Z,1.80
2022-12-23T19:00:50.724Z,1.80
2022-12-23T19:03:27.299Z,1.38
2022-12-23T19:05:54.891Z,1.50
2022-12-23T19:08:26.641Z,1.40
2022-12-23T19:10:54.970Z,1.45
2022-12-23T19:13:22.324Z,1.70
2022-12-23T19:15:49.301Z,1.63
2022-12-23T19:18:17.629Z,1.70
2022-12-23T19:20:45.625Z,1.45
2022-12-23T19:23:13.220Z,1.70
2022-12-23T19:25:42.305Z,1.67
2022-12-23T19:28:09.577Z,1.67
2022-12-23T19:30:36.556Z,1.27
2022-12-23T19:33:03.373Z,1.40
2022-12-23T19:35:30.177Z,1.58
2022-12-23T19:37:56.948Z,1.52
2022-12-23T19:40:23.498Z,2.08
2022-12-23T19:42:50.429Z,1.98
2022-12-23T19:45:17.343Z,1.77
2022-12-23T19:47:44.052Z,1.58
2022-12-23T19:50:11.975Z,1.73
2022-12-23T19:52:39.126Z,2.03
2022-12-23T19:55:06.132Z,2.10
2022-12-23T19:57:33.451Z,2.28
2022-12-23T20:00:01.704Z,2.45
2022-12-23T20:02:39.135Z,1.77
2022-12-23T20:05:06.001Z,3.00
2022-12-23T20:07:32.543Z,2.20
2022-12-23T20:09:59.130Z,1.83
2022-12-23T20:12:28.133Z,2.47
2022-12-23T20:14:54.610Z,2.00
2022-12-23T20:17:21.167Z,2.65
2022-12-23T20:19:47.821Z,2.08
2022-12-23T20:22:14.369Z,2.72
2022-12-23T20:24:41.182Z,2.28
2022-12-23T20:27:11.885Z,2.53
2022-12-23T20:29:39.046Z,2.38
2022-12-23T20:32:06.094Z,2.75
2022-12-23T20:34:38.738Z,2.80
2022-12-23T20:37:06.408Z,2.28
2022-12-23T20:39:33.051Z,2.10
2022-12-23T20:41:59.453Z,2.10
2022-12-23T20:44:35.615Z,2.80
2022-12-23T20:47:05.305Z,2.60
2022-12-23T20:49:31.906Z,2.60
2022-12-23T20:51:58.908Z,2.47
2022-12-23T20:54:32.274Z,2.70
2022-12-23T20:57:01.295Z,2.63
2022-12-23T20:59:27.829Z,2.10
2022-12-23T21:01:54.833Z,2.50
2022-12-23T21:04:22.335Z,2.20
2022-12-23T21:06:49.194Z,2.25
2022-12-23T21:09:16.393Z,2.40
2022-12-23T21:11:45.722Z,2.05
2022-12-23T21:14:13.591Z,2.17
2022-12-23T21:16:40.983Z,2.33
2022-12-23T21:19:09.553Z,1.90
2022-12-23T21:21:36.344Z,2.28
2022-12-23T21:24:05.014Z,2.13
2022-12-23T21:26:33.524Z,1.98
2022-12-23T21:29:02.088Z,2.53
2022-12-23T21:31:30.605Z,2.15
2022-12-23T21:33:58.032Z,1.85
2022-12-23T21:36:32.921Z,2.15
2022-12-23T21:39:00.085Z,2.58
2022-12-23T21:41:29.584Z,2.30
2022-12-23T21:43:58.015Z,2.53
2022-12-23T21:46:25.740Z,2.42
2022-12-23T21:48:52.381Z,2.33
2022-12-23T21:51:38.968Z,2.97
2022-12-23T21:54:08.286Z,1.75
2022-12-23T21:56:35.453Z,2.95
2022-12-23T21:59:07.785Z,2.28
2022-12-23T22:01:35.239Z,2.28
2022-12-23T22:04:05.177Z,2.65
2022-12-23T22:06:37.506Z,2.65
2022-12-23T22:09:05.917Z,2.50
2022-12-23T22:11:35.122Z,3.08
2022-12-23T22:14:03.278Z,3.17
2022-12-23T22:16:30.882Z,4.00
2022-12-23T22:18:58.864Z,3.83
2022-12-23T22:21:28.241Z,3.17
2022-12-23T22:23:55.667Z,3.90
2022-12-23T22:26:26.197Z,3.40
2022-12-23T22:28:55.601Z,3.28
2022-12-23T22:31:31.290Z,2.97
2022-12-23T22:33:59.344Z,3.13
2022-12-23T22:36:26.362Z,3.63
2022-12-23T22:38:55.359Z,3.42
2022-12-23T22:41:23.033Z,2.88
2022-12-23T22:43:50.118Z,3.38
2022-12-23T22:46:18.259Z,3.30
2022-12-23T22:48:45.571Z,3.15
2022-12-23T22:51:15.950Z,3.13
2022-12-23T22:53:42.416Z,2.75
2022-12-23T22:56:11.773Z,3.35
2022-12-23T22:58:38.769Z,3.50
2022-12-23T23:01:06.342Z,3.45
2022-12-23T23:03:33.584Z,3.70
2022-12-23T23:06:04.272Z,2.88
2022-12-23T23:08:31.774Z,2.83
2022-12-23T23:11:00.137Z,3.25
2022-12-23T23:13:29.507Z,3.25
2022-12-23T23:15:56.875Z,3.67
2022-12-23T23:18:24.249Z,2.78
2022-12-23T23:20:51.562Z,3.30
2022-12-23T23:23:18.130Z,3.15
2022-12-23T23:25:45.246Z,4.70
2022-12-23T23:28:11.955Z,2.70
2022-12-23T23:30:39.010Z,3.10
2022-12-23T23:33:07.589Z,2.78
2022-12-23T23:35:35.567Z,2.92
2022-12-23T23:38:02.468Z,3.47
2022-12-23T23:40:29.381Z,3.08
2022-12-23T23:42:55.892Z,3.80
2022-12-23T23:45:22.628Z,4.00
2022-12-23T23:47:49.280Z,3.80
2022-12-23T23:50:15.901Z,3.53
2022-12-23T23:52:42.416Z,3.40
2022-12-23T23:55:09.208Z,3.40
2022-12-23T23:57:36.105Z,3.58
